JIA8816 KDCA-KJFK
Flight info
| Callsign | JIA8816 |
|---|---|
| Flight time | 0h 46m |
| Altitude | 9000 |
| Route | DOCTR5 AGARD T287 SPEAK/N0387F170 T287 DONIL T315 PANZE V44 CAMRN |
| Aircraft | CRJ9/M-SDFGIRWY/S |
Departure
| Time | 2026-05-06 19:17 |
|---|---|
| Airport | Ronald Reagan Washington National Airport (KDCA) |
Arrival
| Time | 2026-05-06 20:03 |
|---|---|
| Airport | John F. Kennedy International Airport (KJFK) |
| Time | Latitude | Longitude | Altitude | Speed | Heading |
|---|---|---|---|---|---|
| 2026-05-06 18:42 | 38.85483 | -77.04148 | 22 ft | 0 kts | 172° |
| 2026-05-06 18:44 | 38.85484 | -77.04148 | 22 ft | 0 kts | 172° |
| 2026-05-06 18:59 | 38.85490 | -77.04151 | 22 ft | 2 kts | 148° |
| 2026-05-06 19:00 | 38.85500 | -77.04164 | 25 ft | 2 kts | 118° |
| 2026-05-06 19:00 | 38.85505 | -77.04180 | 27 ft | 2 kts | 99° |
| 2026-05-06 19:00 | 38.85506 | -77.04197 | 24 ft | 2 kts | 90° |
| 2026-05-06 19:00 | 38.85505 | -77.04214 | 22 ft | 2 kts | 83° |
| 2026-05-06 19:01 | 38.85503 | -77.04230 | 24 ft | 1 kts | 78° |
| 2026-05-06 19:01 | 38.85502 | -77.04237 | 25 ft | 0 kts | 75° |
| 2026-05-06 19:01 | 38.85501 | -77.04237 | 25 ft | 0 kts | 75° |
| 2026-05-06 19:01 | 38.85502 | -77.04237 | 24 ft | 0 kts | 75° |
| 2026-05-06 19:07 | 38.85502 | -77.04235 | 24 ft | 0 kts | 75° |
| 2026-05-06 19:08 | 38.85503 | -77.04229 | 26 ft | 2 kts | 73° |
| 2026-05-06 19:09 | 38.85509 | -77.04204 | 23 ft | 4 kts | 72° |
| 2026-05-06 19:09 | 38.85521 | -77.04158 | 23 ft | 7 kts | 72° |
| 2026-05-06 19:09 | 38.85532 | -77.04116 | 22 ft | 1 kts | 72° |
| 2026-05-06 19:09 | 38.85532 | -77.04114 | 22 ft | 0 kts | 72° |
| 2026-05-06 19:10 | 38.85533 | -77.04111 | 22 ft | 0 kts | 72° |
| 2026-05-06 19:10 | 38.85533 | -77.04112 | 22 ft | 0 kts | 72° |
| 2026-05-06 19:12 | 38.85534 | -77.04105 | 22 ft | 2 kts | 71° |
| 2026-05-06 19:12 | 38.85541 | -77.04077 | 22 ft | 4 kts | 73° |
| 2026-05-06 19:12 | 38.85554 | -77.04043 | 22 ft | 4 kts | 34° |
| 2026-05-06 19:12 | 38.85575 | -77.04037 | 22 ft | 3 kts | 1° |
| 2026-05-06 19:13 | 38.85591 | -77.04037 | 23 ft | 2 kts | 358° |
| 2026-05-06 19:13 | 38.85604 | -77.04038 | 23 ft | 3 kts | 355° |
| 2026-05-06 19:13 | 38.85643 | -77.04042 | 28 ft | 6 kts | 356° |
| 2026-05-06 19:13 | 38.85689 | -77.04047 | 25 ft | 12 kts | 355° |
| 2026-05-06 19:14 | 38.85828 | -77.04063 | 23 ft | 23 kts | 356° |
| 2026-05-06 19:14 | 38.85910 | -77.04062 | 22 ft | 0 kts | 8° |
| 2026-05-06 19:14 | 38.85917 | -77.04061 | 22 ft | 1 kts | 12° |
| 2026-05-06 19:15 | 38.85939 | -77.04052 | 22 ft | 5 kts | 20° |
| 2026-05-06 19:15 | 38.85986 | -77.04035 | 22 ft | 10 kts | 14° |
| 2026-05-06 19:15 | 38.86055 | -77.04004 | 21 ft | 8 kts | 38° |
| 2026-05-06 19:15 | 38.86064 | -77.03993 | 20 ft | 0 kts | 52° |
| 2026-05-06 19:16 | 38.86068 | -77.03985 | 21 ft | 3 kts | 55° |
| 2026-05-06 19:16 | 38.86081 | -77.03948 | 19 ft | 6 kts | 72° |
| 2026-05-06 19:16 | 38.86084 | -77.03886 | 18 ft | 7 kts | 130° |
| 2026-05-06 19:16 | 38.85998 | -77.03861 | 20 ft | 34 kts | 176° |
| 2026-05-06 19:17 | 38.85499 | -77.03810 | 21 ft | 108 kts | 176° |
| 2026-05-06 19:17 | 38.84593 | -77.03683 | 208 ft | 145 kts | 178° |
| 2026-05-06 19:17 | 38.83587 | -77.03514 | 927 ft | 146 kts | 180° |
| 2026-05-06 19:17 | 38.82615 | -77.03388 | 1772 ft | 137 kts | 181° |
| 2026-05-06 19:18 | 38.81669 | -77.03208 | 2456 ft | 139 kts | 179° |
| 2026-05-06 19:18 | 38.80712 | -77.03001 | 3102 ft | 140 kts | 175° |
| 2026-05-06 19:18 | 38.79760 | -77.02642 | 3640 ft | 147 kts | 170° |
| 2026-05-06 19:18 | 38.78753 | -77.02232 | 4092 ft | 151 kts | 175° |
| 2026-05-06 19:19 | 38.77699 | -77.01923 | 4240 ft | 172 kts | 178° |
| 2026-05-06 19:19 | 38.76326 | -77.01692 | 4227 ft | 218 kts | 183° |
| 2026-05-06 19:19 | 38.74864 | -77.01405 | 5350 ft | 212 kts | 171° |
| 2026-05-06 19:19 | 38.73461 | -77.00565 | 6162 ft | 238 kts | 152° |
| 2026-05-06 19:20 | 38.72296 | -76.98871 | 6820 ft | 273 kts | 122° |
| 2026-05-06 19:20 | 38.71798 | -76.96415 | 7396 ft | 300 kts | 94° |
| 2026-05-06 19:20 | 38.72103 | -76.93661 | 7839 ft | 325 kts | 69° |
| 2026-05-06 19:20 | 38.73039 | -76.90902 | 8221 ft | 346 kts | 56° |
| 2026-05-06 19:21 | 38.74543 | -76.88661 | 9266 ft | 341 kts | 40° |
| 2026-05-06 19:21 | 38.76579 | -76.86964 | 9496 ft | 355 kts | 18° |
| 2026-05-06 19:21 | 38.79018 | -76.86108 | 10120 ft | 354 kts | 1° |
| 2026-05-06 19:21 | 38.81480 | -76.86026 | 10524 ft | 360 kts | 346° |
| 2026-05-06 19:22 | 38.83805 | -76.86957 | 11415 ft | 349 kts | 328° |
| 2026-05-06 19:22 | 38.86183 | -76.87887 | 12043 ft | 374 kts | 348° |
| 2026-05-06 19:22 | 38.88853 | -76.87485 | 12662 ft | 402 kts | 12° |
| 2026-05-06 19:22 | 38.91378 | -76.85743 | 13215 ft | 425 kts | 35° |
| 2026-05-06 19:23 | 38.93383 | -76.82866 | 13782 ft | 442 kts | 56° |
| 2026-05-06 19:23 | 38.94695 | -76.79250 | 14318 ft | 453 kts | 69° |
| 2026-05-06 19:23 | 38.95708 | -76.75370 | 14827 ft | 462 kts | 75° |
| 2026-05-06 19:23 | 38.96159 | -76.72687 | 15151 ft | 467 kts | 81° |
| 2026-05-06 19:24 | 38.96612 | -76.68514 | 15686 ft | 475 kts | 83° |
| 2026-05-06 19:24 | 38.97036 | -76.64277 | 16268 ft | 482 kts | 83° |
| 2026-05-06 19:24 | 38.97526 | -76.59968 | 16645 ft | 488 kts | 81° |
| 2026-05-06 19:24 | 38.98093 | -76.55744 | 16669 ft | 473 kts | 80° |
| 2026-05-06 19:25 | 38.98670 | -76.51593 | 16708 ft | 470 kts | 79° |
| 2026-05-06 19:25 | 38.99247 | -76.47454 | 16722 ft | 469 kts | 80° |
| 2026-05-06 19:25 | 38.99789 | -76.43326 | 16757 ft | 470 kts | 80° |
| 2026-05-06 19:25 | 39.00328 | -76.39124 | 16787 ft | 482 kts | 80° |
| 2026-05-06 19:26 | 39.00879 | -76.34829 | 16880 ft | 489 kts | 81° |
| 2026-05-06 19:26 | 39.01427 | -76.30562 | 16961 ft | 481 kts | 81° |
| 2026-05-06 19:26 | 39.01967 | -76.26325 | 16992 ft | 477 kts | 81° |
| 2026-05-06 19:26 | 39.02496 | -76.22134 | 17002 ft | 473 kts | 81° |
| 2026-05-06 19:27 | 39.03024 | -76.17975 | 17000 ft | 470 kts | 81° |
| 2026-05-06 19:27 | 39.03541 | -76.13898 | 17010 ft | 467 kts | 81° |
| 2026-05-06 19:27 | 39.04059 | -76.09788 | 17037 ft | 465 kts | 81° |
| 2026-05-06 19:27 | 39.04501 | -76.05674 | 17025 ft | 462 kts | 84° |
| 2026-05-06 19:28 | 39.04744 | -76.01596 | 17017 ft | 451 kts | 88° |
| 2026-05-06 19:28 | 39.04866 | -75.97597 | 17013 ft | 444 kts | 89° |
| 2026-05-06 19:28 | 39.04981 | -75.93656 | 16998 ft | 437 kts | 89° |
| 2026-05-06 19:28 | 39.05111 | -75.89756 | 17023 ft | 438 kts | 88° |
| 2026-05-06 19:29 | 39.05279 | -75.85818 | 17049 ft | 444 kts | 88° |
| 2026-05-06 19:29 | 39.05457 | -75.81824 | 17041 ft | 449 kts | 87° |
| 2026-05-06 19:29 | 39.05638 | -75.77791 | 17022 ft | 453 kts | 88° |
| 2026-05-06 19:29 | 39.05821 | -75.73726 | 17035 ft | 457 kts | 87° |
| 2026-05-06 19:30 | 39.06022 | -75.69625 | 17026 ft | 461 kts | 87° |
| 2026-05-06 19:30 | 39.06234 | -75.65498 | 17022 ft | 464 kts | 87° |
| 2026-05-06 19:30 | 39.06421 | -75.61343 | 17007 ft | 466 kts | 88° |
| 2026-05-06 19:30 | 39.06598 | -75.57164 | 17003 ft | 468 kts | 88° |
| 2026-05-06 19:31 | 39.06772 | -75.52976 | 16997 ft | 470 kts | 88° |
| 2026-05-06 19:31 | 39.06947 | -75.48768 | 16995 ft | 471 kts | 88° |
| 2026-05-06 19:31 | 39.07292 | -75.40316 | 16991 ft | 474 kts | 88° |
| 2026-05-06 19:32 | 39.07468 | -75.36072 | 16991 ft | 475 kts | 88° |
| 2026-05-06 19:32 | 39.07689 | -75.31830 | 16983 ft | 476 kts | 82° |
| 2026-05-06 19:32 | 39.08690 | -75.27792 | 16992 ft | 475 kts | 60° |
| 2026-05-06 19:32 | 39.10542 | -75.24305 | 17003 ft | 471 kts | 48° |
| 2026-05-06 19:33 | 39.12556 | -75.21052 | 17010 ft | 471 kts | 48° |
| 2026-05-06 19:33 | 39.14539 | -75.17683 | 17006 ft | 473 kts | 51° |
| 2026-05-06 19:33 | 39.16399 | -75.14166 | 17015 ft | 475 kts | 54° |
| 2026-05-06 19:33 | 39.18210 | -75.10594 | 17016 ft | 476 kts | 54° |
| 2026-05-06 19:34 | 39.20068 | -75.06998 | 17013 ft | 476 kts | 53° |
| 2026-05-06 19:34 | 39.21927 | -75.03459 | 17014 ft | 477 kts | 53° |
| 2026-05-06 19:34 | 39.23754 | -74.99959 | 17015 ft | 477 kts | 53° |
| 2026-05-06 19:34 | 39.25610 | -74.96402 | 17018 ft | 478 kts | 53° |
| 2026-05-06 19:35 | 39.27465 | -74.92833 | 17014 ft | 479 kts | 54° |
| 2026-05-06 19:35 | 39.29307 | -74.89257 | 17023 ft | 479 kts | 53° |
| 2026-05-06 19:35 | 39.31168 | -74.85684 | 17015 ft | 480 kts | 53° |
| 2026-05-06 19:35 | 39.33023 | -74.82104 | 17046 ft | 480 kts | 53° |
| 2026-05-06 19:36 | 39.34892 | -74.78517 | 17042 ft | 481 kts | 53° |
| 2026-05-06 19:36 | 39.36759 | -74.74919 | 17026 ft | 482 kts | 53° |
| 2026-05-06 19:36 | 39.38614 | -74.71301 | 17020 ft | 482 kts | 54° |
| 2026-05-06 19:36 | 39.40472 | -74.67696 | 17017 ft | 482 kts | 53° |
| 2026-05-06 19:37 | 39.42337 | -74.64083 | 17033 ft | 483 kts | 54° |
| 2026-05-06 19:37 | 39.44208 | -74.60475 | 17040 ft | 484 kts | 54° |
| 2026-05-06 19:37 | 39.46071 | -74.56846 | 17038 ft | 484 kts | 54° |
| 2026-05-06 19:37 | 39.47954 | -74.53222 | 17036 ft | 484 kts | 53° |
| 2026-05-06 19:38 | 39.49891 | -74.49656 | 17021 ft | 484 kts | 52° |
| 2026-05-06 19:38 | 39.51830 | -74.46086 | 17004 ft | 484 kts | 52° |
| 2026-05-06 19:38 | 39.53765 | -74.42507 | 17012 ft | 484 kts | 52° |
| 2026-05-06 19:38 | 39.55669 | -74.38972 | 17040 ft | 485 kts | 52° |
| 2026-05-06 19:39 | 39.57602 | -74.35384 | 17048 ft | 485 kts | 52° |
| 2026-05-06 19:39 | 39.59518 | -74.31827 | 17015 ft | 476 kts | 52° |
| 2026-05-06 19:39 | 39.61394 | -74.28337 | 17006 ft | 465 kts | 52° |
| 2026-05-06 19:39 | 39.63205 | -74.24966 | 16993 ft | 443 kts | 52° |
| 2026-05-06 19:40 | 39.64924 | -74.21773 | 17019 ft | 421 kts | 52° |
| 2026-05-06 19:40 | 39.66581 | -74.18692 | 17002 ft | 416 kts | 52° |
| 2026-05-06 19:40 | 39.68346 | -74.15713 | 16980 ft | 414 kts | 41° |
| 2026-05-06 19:40 | 39.70501 | -74.13275 | 16997 ft | 410 kts | 32° |
| 2026-05-06 19:41 | 39.72774 | -74.11024 | 17033 ft | 411 kts | 32° |
| 2026-05-06 19:41 | 39.75044 | -74.08744 | 17029 ft | 414 kts | 33° |
| 2026-05-06 19:41 | 39.77271 | -74.06352 | 17027 ft | 413 kts | 36° |
| 2026-05-06 19:41 | 39.79398 | -74.03973 | 17030 ft | 395 kts | 35° |
| 2026-05-06 19:42 | 39.81451 | -74.01692 | 16992 ft | 381 kts | 35° |
| 2026-05-06 19:42 | 39.83431 | -73.99479 | 16839 ft | 370 kts | 35° |
| 2026-05-06 19:42 | 39.85446 | -73.97503 | 16687 ft | 355 kts | 25° |
| 2026-05-06 19:42 | 39.87566 | -73.95965 | 16553 ft | 343 kts | 19° |
| 2026-05-06 19:43 | 39.89707 | -73.94621 | 16227 ft | 341 kts | 18° |
| 2026-05-06 19:43 | 39.91818 | -73.93270 | 15807 ft | 345 kts | 21° |
| 2026-05-06 19:43 | 39.93958 | -73.91791 | 15323 ft | 350 kts | 22° |
| 2026-05-06 19:43 | 39.96109 | -73.90257 | 14755 ft | 356 kts | 23° |
| 2026-05-06 19:44 | 39.98305 | -73.88698 | 14199 ft | 362 kts | 23° |
| 2026-05-06 19:44 | 40.00530 | -73.87118 | 13670 ft | 366 kts | 24° |
| 2026-05-06 19:44 | 40.02768 | -73.85509 | 13030 ft | 367 kts | 24° |
| 2026-05-06 19:44 | 40.04996 | -73.83890 | 12411 ft | 365 kts | 25° |
| 2026-05-06 19:45 | 40.07200 | -73.82276 | 11798 ft | 363 kts | 24° |
| 2026-05-06 19:45 | 40.09392 | -73.80676 | 11407 ft | 357 kts | 24° |
| 2026-05-06 19:45 | 40.11519 | -73.79116 | 11207 ft | 343 kts | 24° |
| 2026-05-06 19:45 | 40.13533 | -73.77624 | 11143 ft | 325 kts | 24° |
| 2026-05-06 19:46 | 40.15450 | -73.76192 | 11228 ft | 320 kts | 24° |
| 2026-05-06 19:46 | 40.17494 | -73.74882 | 11306 ft | 332 kts | 10° |
| 2026-05-06 19:46 | 40.19789 | -73.74532 | 11329 ft | 336 kts | 350° |
| 2026-05-06 19:46 | 40.22163 | -73.74784 | 11328 ft | 349 kts | 347° |
| 2026-05-06 19:47 | 40.24643 | -73.75052 | 11224 ft | 369 kts | 350° |
| 2026-05-06 19:47 | 40.27261 | -73.74976 | 11133 ft | 368 kts | 359° |
| 2026-05-06 19:47 | 40.29726 | -73.74532 | 11163 ft | 347 kts | 3° |
| 2026-05-06 19:47 | 40.32052 | -73.73974 | 11109 ft | 331 kts | 4° |
| 2026-05-06 19:48 | 40.34249 | -73.73425 | 11146 ft | 310 kts | 3° |
| 2026-05-06 19:48 | 40.36362 | -73.72899 | 10675 ft | 309 kts | 2° |
| 2026-05-06 19:48 | 40.38480 | -73.72427 | 10203 ft | 307 kts | 1° |
| 2026-05-06 19:48 | 40.40552 | -73.71994 | 9722 ft | 305 kts | 1° |
| 2026-05-06 19:49 | 40.42642 | -73.71549 | 9195 ft | 303 kts | 1° |
| 2026-05-06 19:49 | 40.44710 | -73.71109 | 8676 ft | 300 kts | 1° |
| 2026-05-06 19:49 | 40.46785 | -73.70668 | 8161 ft | 296 kts | 1° |
| 2026-05-06 19:49 | 40.48782 | -73.70252 | 7672 ft | 292 kts | 1° |
| 2026-05-06 19:50 | 40.50748 | -73.69562 | 7168 ft | 297 kts | 21° |
| 2026-05-06 19:50 | 40.52554 | -73.68252 | 6728 ft | 296 kts | 25° |
| 2026-05-06 19:50 | 40.54318 | -73.66883 | 6282 ft | 293 kts | 26° |
| 2026-05-06 19:50 | 40.56056 | -73.65509 | 5800 ft | 291 kts | 27° |
| 2026-05-06 19:51 | 40.57772 | -73.64126 | 5300 ft | 288 kts | 27° |
| 2026-05-06 19:51 | 40.59465 | -73.62751 | 4802 ft | 284 kts | 27° |
| 2026-05-06 19:51 | 40.61140 | -73.61395 | 4356 ft | 279 kts | 27° |
| 2026-05-06 19:51 | 40.62752 | -73.60090 | 4132 ft | 265 kts | 27° |
| 2026-05-06 19:52 | 40.64273 | -73.58853 | 4052 ft | 249 kts | 27° |
| 2026-05-06 19:52 | 40.65707 | -73.57679 | 4012 ft | 237 kts | 27° |
| 2026-05-06 19:52 | 40.67120 | -73.56521 | 3995 ft | 243 kts | 27° |
| 2026-05-06 19:52 | 40.68581 | -73.55329 | 3995 ft | 250 kts | 27° |
| 2026-05-06 19:53 | 40.70083 | -73.54115 | 4002 ft | 257 kts | 27° |
| 2026-05-06 19:53 | 40.71615 | -73.52880 | 3857 ft | 262 kts | 27° |
| 2026-05-06 19:53 | 40.73211 | -73.51594 | 3133 ft | 277 kts | 27° |
| 2026-05-06 19:53 | 40.74890 | -73.50261 | 2513 ft | 282 kts | 27° |
| 2026-05-06 19:54 | 40.76537 | -73.48968 | 2229 ft | 269 kts | 27° |
| 2026-05-06 19:54 | 40.78110 | -73.47775 | 2068 ft | 250 kts | 20° |
| 2026-05-06 19:54 | 40.79697 | -73.47363 | 1987 ft | 218 kts | 345° |
| 2026-05-06 19:54 | 40.80959 | -73.48023 | 1961 ft | 178 kts | 306° |
| 2026-05-06 19:55 | 40.81725 | -73.49134 | 2002 ft | 159 kts | 300° |
| 2026-05-06 19:55 | 40.82449 | -73.50249 | 2045 ft | 160 kts | 298° |
| 2026-05-06 19:55 | 40.83102 | -73.51429 | 2058 ft | 155 kts | 281° |
| 2026-05-06 19:55 | 40.83061 | -73.52699 | 2111 ft | 139 kts | 238° |
| 2026-05-06 19:56 | 40.82551 | -73.53797 | 2099 ft | 142 kts | 237° |
| 2026-05-06 19:56 | 40.82032 | -73.54909 | 2101 ft | 142 kts | 237° |
| 2026-05-06 19:56 | 40.81518 | -73.55997 | 2039 ft | 137 kts | 237° |
| 2026-05-06 19:56 | 40.81012 | -73.57049 | 2020 ft | 135 kts | 236° |
| 2026-05-06 19:57 | 40.80516 | -73.58095 | 2003 ft | 134 kts | 236° |
| 2026-05-06 19:57 | 40.80029 | -73.59133 | 2004 ft | 132 kts | 237° |
| 2026-05-06 19:57 | 40.79544 | -73.60159 | 1986 ft | 131 kts | 237° |
| 2026-05-06 19:57 | 40.79062 | -73.61167 | 1962 ft | 128 kts | 237° |
| 2026-05-06 19:58 | 40.78597 | -73.62149 | 1939 ft | 123 kts | 237° |
| 2026-05-06 19:58 | 40.78144 | -73.63124 | 1926 ft | 119 kts | 238° |
| 2026-05-06 19:58 | 40.77748 | -73.63985 | 1740 ft | 105 kts | 237° |
| 2026-05-06 19:58 | 40.77372 | -73.64831 | 1437 ft | 111 kts | 238° |
| 2026-05-06 19:59 | 40.77019 | -73.65663 | 1400 ft | 107 kts | 237° |
| 2026-05-06 19:59 | 40.76681 | -73.66474 | 1549 ft | 101 kts | 237° |
| 2026-05-06 19:59 | 40.76185 | -73.67230 | 1733 ft | 123 kts | 212° |
| 2026-05-06 19:59 | 40.75352 | -73.67680 | 2048 ft | 129 kts | 206° |
| 2026-05-06 20:00 | 40.74509 | -73.68089 | 2160 ft | 131 kts | 208° |
| 2026-05-06 20:00 | 40.73664 | -73.68515 | 1754 ft | 130 kts | 209° |
| 2026-05-06 20:00 | 40.72867 | -73.68975 | 1497 ft | 119 kts | 211° |
| 2026-05-06 20:00 | 40.72126 | -73.69474 | 1029 ft | 126 kts | 211° |
| 2026-05-06 20:01 | 40.71311 | -73.70142 | 601 ft | 138 kts | 211° |
| 2026-05-06 20:01 | 40.70602 | -73.70736 | 516 ft | 110 kts | 210° |
| 2026-05-06 20:01 | 40.69854 | -73.71324 | 427 ft | 137 kts | 208° |
| 2026-05-06 20:01 | 40.68976 | -73.71930 | 754 ft | 140 kts | 210° |
| 2026-05-06 20:02 | 40.68212 | -73.72591 | 660 ft | 124 kts | 210° |
| 2026-05-06 20:02 | 40.67453 | -73.73208 | 424 ft | 125 kts | 211° |
| 2026-05-06 20:02 | 40.66732 | -73.73773 | 376 ft | 127 kts | 205° |
| 2026-05-06 20:02 | 40.65972 | -73.74390 | 369 ft | 134 kts | 208° |
| 2026-05-06 20:03 | 40.65203 | -73.74978 | 248 ft | 120 kts | 206° |
| 2026-05-06 20:03 | 40.64453 | -73.75535 | 83 ft | 127 kts | 210° |
| 2026-05-06 20:03 | 40.63807 | -73.76049 | 19 ft | 88 kts | 206° |
| 2026-05-06 20:03 | 40.63415 | -73.76347 | 22 ft | 32 kts | 218° |
| 2026-05-06 20:04 | 40.63317 | -73.76476 | 21 ft | 9 kts | 229° |
| 2026-05-06 20:04 | 40.63287 | -73.76524 | 21 ft | 11 kts | 233° |
| 2026-05-06 20:04 | 40.63246 | -73.76609 | 20 ft | 11 kts | 243° |
| 2026-05-06 20:04 | 40.63235 | -73.76700 | 18 ft | 10 kts | 284° |
| 2026-05-06 20:05 | 40.63263 | -73.76777 | 19 ft | 9 kts | 297° |
| 2026-05-06 20:05 | 40.63295 | -73.76848 | 19 ft | 9 kts | 300° |
| 2026-05-06 20:05 | 40.63327 | -73.76915 | 18 ft | 9 kts | 301° |
| 2026-05-06 20:05 | 40.63357 | -73.76981 | 18 ft | 8 kts | 301° |
| 2026-05-06 20:06 | 40.63387 | -73.77047 | 19 ft | 8 kts | 301° |
| 2026-05-06 20:06 | 40.63417 | -73.77112 | 19 ft | 8 kts | 301° |
| 2026-05-06 20:06 | 40.63452 | -73.77189 | 20 ft | 12 kts | 301° |
| 2026-05-06 20:06 | 40.63496 | -73.77285 | 19 ft | 11 kts | 301° |
| 2026-05-06 20:07 | 40.63516 | -73.77329 | 19 ft | 7 kts | 301° |
| 2026-05-06 20:07 | 40.63528 | -73.77355 | 19 ft | 0 kts | 301° |
| 2026-05-06 20:08 | 40.63529 | -73.77357 | 19 ft | 3 kts | 301° |
| 2026-05-06 20:08 | 40.63573 | -73.77457 | 20 ft | 26 kts | 300° |
| 2026-05-06 20:08 | 40.63653 | -73.77619 | 18 ft | 20 kts | 306° |
| 2026-05-06 20:08 | 40.63717 | -73.77659 | 18 ft | 8 kts | 20° |
| 2026-05-06 20:09 | 40.63766 | -73.77668 | 18 ft | 7 kts | 315° |
| 2026-05-06 20:09 | 40.63806 | -73.77713 | 18 ft | 8 kts | 323° |
| 2026-05-06 20:09 | 40.63853 | -73.77758 | 19 ft | 9 kts | 325° |
| 2026-05-06 20:09 | 40.63877 | -73.77825 | 19 ft | 9 kts | 265° |
| 2026-05-06 20:10 | 40.63877 | -73.77909 | 19 ft | 9 kts | 275° |
| 2026-05-06 20:10 | 40.63865 | -73.77992 | 19 ft | 8 kts | 264° |
| 2026-05-06 20:10 | 40.63877 | -73.78021 | 19 ft | 3 kts | 330° |
| 2026-05-06 20:10 | 40.63896 | -73.78039 | 19 ft | 4 kts | 306° |
| 2026-05-06 20:11 | 40.63899 | -73.78050 | 19 ft | 0 kts | 275° |
| 2026-05-06 20:11 | 40.63899 | -73.78046 | 19 ft | 2 kts | 259° |
| 2026-05-06 20:11 | 40.63907 | -73.78018 | 19 ft | 0 kts | 261° |
| 2026-05-06 20:11 | 40.63907 | -73.78020 | 19 ft | 1 kts | 260° |
| 2026-05-06 20:12 | 40.63905 | -73.78035 | 19 ft | 2 kts | 261° |
| 2026-05-06 20:12 | 40.63903 | -73.78052 | 19 ft | 0 kts | 263° |